sensor_id;sensor_type;location;lat;lon;timestamp;pressure;altitude;pressure_sealevel;temperature;humidity
72721;BME280;60835;50.974;10.322;2024-03-08T00:00:11;98743.97;;;0.94;100.00
72721;BME280;60835;50.974;10.322;2024-03-08T00:02:43;98751.91;;;1.07;100.00
72721;BME280;60835;50.974;10.322;2024-03-08T00:05:11;98718.25;;;0.88;100.00
72721;BME280;60835;50.974;10.322;2024-03-08T00:07:39;98735.81;;;1.00;100.00
72721;BME280;60835;50.974;10.322;2024-03-08T00:10:07;98748.63;;;1.03;100.00
72721;BME280;60835;50.974;10.322;2024-03-08T00:12:48;98753.22;;;1.00;100.00
72721;BME280;60835;50.974;10.322;2024-03-08T00:15:16;98727.50;;;0.94;100.00
72721;BME280;60835;50.974;10.322;2024-03-08T00:17:45;98734.72;;;0.89;100.00
72721;BME280;60835;50.974;10.322;2024-03-08T00:20:13;98724.59;;;0.84;100.00
72721;BME280;60835;50.974;10.322;2024-03-08T00:22:40;98700.66;;;0.78;100.00
72721;BME280;60835;50.974;10.322;2024-03-08T00:25:07;98716.84;;;0.83;100.00
72721;BME280;60835;50.974;10.322;2024-03-08T00:27:36;98727.38;;;0.81;100.00
72721;BME280;60835;50.974;10.322;2024-03-08T00:30:03;98726.41;;;0.82;100.00
72721;BME280;60835;50.974;10.322;2024-03-08T00:32:30;98722.31;;;0.78;100.00
72721;BME280;60835;50.974;10.322;2024-03-08T00:34:58;98694.38;;;0.66;100.00
72721;BME280;60835;50.974;10.322;2024-03-08T00:37:25;98598.31;;;0.00;100.00
72721;BME280;60835;50.974;10.322;2024-03-08T00:39:54;98733.31;;;0.83;100.00
72721;BME280;60835;50.974;10.322;2024-03-08T00:42:20;98729.22;;;0.79;100.00
72721;BME280;60835;50.974;10.322;2024-03-08T00:44:47;98706.19;;;0.72;100.00
72721;BME280;60835;50.974;10.322;2024-03-08T00:47:18;98667.97;;;0.42;100.00
72721;BME280;60835;50.974;10.322;2024-03-08T00:49:45;98711.75;;;0.66;100.00
72721;BME280;60835;50.974;10.322;2024-03-08T00:52:13;98680.88;;;0.44;100.00
72721;BME280;60835;50.974;10.322;2024-03-08T00:54:40;98693.41;;;0.53;100.00
72721;BME280;60835;50.974;10.322;2024-03-08T00:57:06;98686.16;;;0.58;100.00
72721;BME280;60835;50.974;10.322;2024-03-08T00:59:33;98693.97;;;0.58;100.00
72721;BME280;60835;50.974;10.322;2024-03-08T01:02:01;98696.59;;;0.58;100.00
72721;BME280;60835;50.974;10.322;2024-03-08T01:04:28;98689.00;;;0.53;100.00
72721;BME280;60835;50.974;10.322;2024-03-08T01:06:56;98695.81;;;0.56;100.00
72721;BME280;60835;50.974;10.322;2024-03-08T01:09:24;98690.97;;;0.50;100.00
72721;BME280;60835;50.974;10.322;2024-03-08T01:11:51;98658.91;;;0.34;100.00
72721;BME280;60835;50.974;10.322;2024-03-08T01:14:17;98677.00;;;0.51;100.00
72721;BME280;60835;50.974;10.322;2024-03-08T01:16:44;98625.25;;;0.15;100.00
72721;BME280;60835;50.974;10.322;2024-03-08T01:19:10;98663.09;;;0.36;100.00
72721;BME280;60835;50.974;10.322;2024-03-08T01:21:37;98659.06;;;0.31;100.00
72721;BME280;60835;50.974;10.322;2024-03-08T01:24:04;98645.66;;;0.23;100.00
72721;BME280;60835;50.974;10.322;2024-03-08T01:26:31;98659.06;;;0.31;100.00
72721;BME280;60835;50.974;10.322;2024-03-08T01:29:01;98536.94;;;-0.49;100.00
72721;BME280;60835;50.974;10.322;2024-03-08T01:31:31;98647.75;;;0.32;100.00
72721;BME280;60835;50.974;10.322;2024-03-08T01:33:58;98617.03;;;0.07;100.00
72721;BME280;60835;50.974;10.322;2024-03-08T01:36:25;98630.53;;;0.14;100.00
72721;BME280;60835;50.974;10.322;2024-03-08T01:38:52;98626.69;;;0.21;100.00
72721;BME280;60835;50.974;10.322;2024-03-08T01:41:19;98622.66;;;0.15;100.00
72721;BME280;60835;50.974;10.322;2024-03-08T01:43:46;98596.25;;;-0.09;100.00
72721;BME280;60835;50.974;10.322;2024-03-08T01:46:17;98607.66;;;0.05;100.00
72721;BME280;60835;50.974;10.322;2024-03-08T01:48:45;98571.47;;;-0.16;100.00
72721;BME280;60835;50.974;10.322;2024-03-08T01:51:12;98613.00;;;0.02;100.00
72721;BME280;60835;50.974;10.322;2024-03-08T01:53:42;98614.09;;;-0.03;100.00
72721;BME280;60835;50.974;10.322;2024-03-08T01:56:13;98584.91;;;-0.08;100.00
72721;BME280;60835;50.974;10.322;2024-03-08T01:58:41;98595.66;;;-0.14;100.00
72721;BME280;60835;50.974;10.322;2024-03-08T02:01:11;98508.53;;;-0.52;100.00
72721;BME280;60835;50.974;10.322;2024-03-08T02:03:39;98541.97;;;-0.30;100.00
72721;BME280;60835;50.974;10.322;2024-03-08T02:06:06;98561.09;;;-0.16;100.00
72721;BME280;60835;50.974;10.322;2024-03-08T02:08:37;98538.97;;;-0.23;100.00
72721;BME280;60835;50.974;10.322;2024-03-08T02:11:04;98524.38;;;-0.25;100.00
72721;BME280;60835;50.974;10.322;2024-03-08T02:13:30;98510.28;;;-0.37;100.00
72721;BME280;60835;50.974;10.322;2024-03-08T02:15:58;98534.78;;;-0.25;100.00
72721;BME280;60835;50.974;10.322;2024-03-08T02:18:26;98520.69;;;-0.37;100.00
72721;BME280;60835;50.974;10.322;2024-03-08T02:20:58;98515.69;;;-0.40;100.00
72721;BME280;60835;50.974;10.322;2024-03-08T02:23:26;98511.44;;;-0.42;100.00
72721;BME280;60835;50.974;10.322;2024-03-08T02:25:55;98512.28;;;-0.42;100.00
72721;BME280;60835;50.974;10.322;2024-03-08T02:28:23;98514.06;;;-0.42;100.00
72721;BME280;60835;50.974;10.322;2024-03-08T02:30:52;98468.38;;;-0.62;100.00
72721;BME280;60835;50.974;10.322;2024-03-08T02:33:26;98470.56;;;-0.54;100.00
72721;BME280;60835;50.974;10.322;2024-03-08T02:35:54;98452.38;;;-0.70;100.00
72721;BME280;60835;50.974;10.322;2024-03-08T02:38:22;98352.94;;;-1.19;100.00
72721;BME280;60835;50.974;10.322;2024-03-08T02:40:53;98463.09;;;-0.45;100.00
72721;BME280;60835;50.974;10.322;2024-03-08T02:43:21;98462.50;;;-0.50;100.00
72721;BME280;60835;50.974;10.322;2024-03-08T02:45:51;98432.69;;;-0.58;100.00
72721;BME280;60835;50.974;10.322;2024-03-08T02:48:21;98402.03;;;-0.83;100.00
72721;BME280;60835;50.974;10.322;2024-03-08T02:50:48;98434.44;;;-0.59;100.00
72721;BME280;60835;50.974;10.322;2024-03-08T02:53:20;98436.50;;;-0.50;100.00
72721;BME280;60835;50.974;10.322;2024-03-08T02:55:48;98437.03;;;-0.59;100.00
72721;BME280;60835;50.974;10.322;2024-03-08T02:58:15;98383.28;;;-0.88;100.00
72721;BME280;60835;50.974;10.322;2024-03-08T03:00:42;98373.91;;;-0.91;100.00
72721;BME280;60835;50.974;10.322;2024-03-08T03:03:10;98436.69;;;-0.53;100.00
72721;BME280;60835;50.974;10.322;2024-03-08T03:05:36;98440.53;;;-0.44;100.00
72721;BME280;60835;50.974;10.322;2024-03-08T03:11:28;98418.25;;;-0.48;100.00
72721;BME280;60835;50.974;10.322;2024-03-08T03:13:55;98348.34;;;-0.98;100.00
72721;BME280;60835;50.974;10.322;2024-03-08T03:16:22;98392.13;;;-0.61;100.00
72721;BME280;60835;50.974;10.322;2024-03-08T03:18:50;98373.28;;;-0.80;100.00
72721;BME280;60835;50.974;10.322;2024-03-08T03:21:16;98402.31;;;-0.58;100.00
72721;BME280;60835;50.974;10.322;2024-03-08T03:23:44;98327.97;;;-1.06;100.00
72721;BME280;60835;50.974;10.322;2024-03-08T03:26:10;98362.91;;;-0.80;100.00
72721;BME280;60835;50.974;10.322;2024-03-08T03:28:39;98341.22;;;-0.95;100.00
72721;BME280;60835;50.974;10.322;2024-03-08T03:31:06;98400.66;;;-0.59;100.00
72721;BME280;60835;50.974;10.322;2024-03-08T03:33:35;98389.94;;;-0.69;100.00
72721;BME280;60835;50.974;10.322;2024-03-08T03:36:04;98357.13;;;-0.85;100.00
72721;BME280;60835;50.974;10.322;2024-03-08T03:38:32;98385.16;;;-0.61;100.00
72721;BME280;60835;50.974;10.322;2024-03-08T03:41:01;98328.91;;;-0.91;100.00
72721;BME280;60835;50.974;10.322;2024-03-08T03:43:37;98384.13;;;-0.58;100.00
72721;BME280;60835;50.974;10.322;2024-03-08T03:46:06;98359.38;;;-0.79;100.00
72721;BME280;60835;50.974;10.322;2024-03-08T03:48:34;98350.44;;;-0.89;100.00
72721;BME280;60835;50.974;10.322;2024-03-08T03:51:00;98373.13;;;-0.77;100.00
72721;BME280;60835;50.974;10.322;2024-03-08T03:53:30;98370.00;;;-0.68;100.00
72721;BME280;60835;50.974;10.322;2024-03-08T03:55:59;98342.06;;;-0.94;100.00
72721;BME280;60835;50.974;10.322;2024-03-08T03:58:28;98321.63;;;-1.00;100.00
72721;BME280;60835;50.974;10.322;2024-03-08T04:00:54;98378.38;;;-0.63;100.00
72721;BME280;60835;50.974;10.322;2024-03-08T04:03:21;98365.09;;;-0.88;100.00
72721;BME280;60835;50.974;10.322;2024-03-08T04:05:48;98380.94;;;-0.77;100.00
72721;BME280;60835;50.974;10.322;2024-03-08T04:08:16;98339.88;;;-0.86;100.00
72721;BME280;60835;50.974;10.322;2024-03-08T04:10:43;98331.25;;;-0.87;100.00
72721;BME280;60835;50.974;10.322;2024-03-08T04:13:10;98346.91;;;-0.88;100.00
72721;BME280;60835;50.974;10.322;2024-03-08T04:15:37;98362.91;;;-0.80;100.00
72721;BME280;60835;50.974;10.322;2024-03-08T04:18:04;98348.00;;;-0.92;100.00
72721;BME280;60835;50.974;10.322;2024-03-08T04:20:37;98371.72;;;-0.83;100.00
72721;BME280;60835;50.974;10.322;2024-03-08T04:23:04;98313.78;;;-1.14;100.00
72721;BME280;60835;50.974;10.322;2024-03-08T04:25:31;98340.38;;;-0.95;100.00
72721;BME280;60835;50.974;10.322;2024-03-08T04:27:57;98339.47;;;-0.94;100.00
72721;BME280;60835;50.974;10.322;2024-03-08T04:30:24;98337.03;;;-0.97;100.00
72721;BME280;60835;50.974;10.322;2024-03-08T04:32:51;98337.88;;;-0.97;100.00
72721;BME280;60835;50.974;10.322;2024-03-08T04:35:19;98339.41;;;-0.93;100.00
72721;BME280;60835;50.974;10.322;2024-03-08T04:37:47;98281.81;;;-1.31;100.00
72721;BME280;60835;50.974;10.322;2024-03-08T04:40:14;98330.59;;;-1.06;100.00
72721;BME280;60835;50.974;10.322;2024-03-08T04:42:42;98304.88;;;-1.10;100.00
72721;BME280;60835;50.974;10.322;2024-03-08T04:45:09;98330.19;;;-0.98;100.00
72721;BME280;60835;50.974;10.322;2024-03-08T04:47:38;98325.31;;;-1.04;100.00
72721;BME280;60835;50.974;10.322;2024-03-08T04:50:06;98253.19;;;-1.45;100.00
72721;BME280;60835;50.974;10.322;2024-03-08T04:52:32;98291.66;;;-1.22;100.00
72721;BME280;60835;50.974;10.322;2024-03-08T04:54:59;98306.91;;;-1.15;100.00
72721;BME280;60835;50.974;10.322;2024-03-08T04:57:26;98279.78;;;-1.26;100.00
72721;BME280;60835;50.974;10.322;2024-03-08T04:59:54;98269.75;;;-1.32;100.00
72721;BME280;60835;50.974;10.322;2024-03-08T05:02:21;98277.69;;;-1.35;100.00
72721;BME280;60835;50.974;10.322;2024-03-08T05:04:49;98293.34;;;-1.20;100.00
72721;BME280;60835;50.974;10.322;2024-03-08T05:07:16;98293.84;;;-1.14;100.00
72721;BME280;60835;50.974;10.322;2024-03-08T05:09:43;98293.50;;;-1.24;100.00
72721;BME280;60835;50.974;10.322;2024-03-08T05:12:18;98284.31;;;-1.29;100.00
72721;BME280;60835;50.974;10.322;2024-03-08T05:14:46;98271.59;;;-1.34;100.00
72721;BME280;60835;50.974;10.322;2024-03-08T05:17:16;98266.72;;;-1.40;100.00
72721;BME280;60835;50.974;10.322;2024-03-08T05:19:44;98264.31;;;-1.43;100.00
72721;BME280;60835;50.974;10.322;2024-03-08T05:22:11;98259.38;;;-1.47;100.00
72721;BME280;60835;50.974;10.322;2024-03-08T05:24:37;98260.06;;;-1.44;100.00
72721;BME280;60835;50.974;10.322;2024-03-08T05:27:04;98216.38;;;-1.67;100.00
72721;BME280;60835;50.974;10.322;2024-03-08T05:29:31;98208.00;;;-1.72;100.00
72721;BME280;60835;50.974;10.322;2024-03-08T05:31:57;98233.69;;;-1.52;100.00
72721;BME280;60835;50.974;10.322;2024-03-08T05:34:26;98241.16;;;-1.46;100.00
72721;BME280;60835;50.974;10.322;2024-03-08T05:36:55;98231.09;;;-1.52;100.00
72721;BME280;60835;50.974;10.322;2024-03-08T05:39:21;98247.81;;;-1.42;100.00
72721;BME280;60835;50.974;10.322;2024-03-08T05:41:49;98215.38;;;-1.49;100.00
72721;BME280;60835;50.974;10.322;2024-03-08T05:44:21;98242.06;;;-1.47;100.00
72721;BME280;60835;50.974;10.322;2024-03-08T05:46:49;98216.53;;;-1.54;100.00
72721;BME280;60835;50.974;10.322;2024-03-08T05:49:17;98212.19;;;-1.54;100.00
72721;BME280;60835;50.974;10.322;2024-03-08T05:51:44;98198.81;;;-1.62;100.00
72721;BME280;60835;50.974;10.322;2024-03-08T05:54:12;98228.91;;;-1.44;100.00
72721;BME280;60835;50.974;10.322;2024-03-08T05:56:46;98237.63;;;-1.45;100.00
72721;BME280;60835;50.974;10.322;2024-03-08T05:59:18;98225.75;;;-1.49;100.00
72721;BME280;60835;50.974;10.322;2024-03-08T06:01:45;98206.03;;;-1.67;100.00
72721;BME280;60835;50.974;10.322;2024-03-08T06:04:13;98200.00;;;-1.67;100.00
72721;BME280;60835;50.974;10.322;2024-03-08T06:06:40;98209.09;;;-1.60;100.00
72721;BME280;60835;50.974;10.322;2024-03-08T06:09:08;98218.72;;;-1.47;100.00
72721;BME280;60835;50.974;10.322;2024-03-08T06:11:45;98198.81;;;-1.62;100.00
72721;BME280;60835;50.974;10.322;2024-03-08T06:14:12;98210.19;;;-1.49;100.00
72721;BME280;60835;50.974;10.322;2024-03-08T06:16:41;98210.75;;;-1.44;100.00
72721;BME280;60835;50.974;10.322;2024-03-08T06:19:07;98211.59;;;-1.43;100.00
72721;BME280;60835;50.974;10.322;2024-03-08T06:21:35;98207.78;;;-1.38;100.00
72721;BME280;60835;50.974;10.322;2024-03-08T06:24:01;98209.06;;;-1.45;100.00
72721;BME280;60835;50.974;10.322;2024-03-08T06:26:29;98207.78;;;-1.38;100.00
72721;BME280;60835;50.974;10.322;2024-03-08T06:28:57;98199.19;;;-1.38;100.00
72721;BME280;60835;50.974;10.322;2024-03-08T06:31:24;98202.44;;;-1.35;100.00
72721;BME280;60835;50.974;10.322;2024-03-08T06:33:51;98179.69;;;-1.45;100.00
72721;BME280;60835;50.974;10.322;2024-03-08T06:36:17;98185.56;;;-1.42;100.00
72721;BME280;60835;50.974;10.322;2024-03-08T06:38:52;98052.44;;;-2.17;100.00
72721;BME280;60835;50.974;10.322;2024-03-08T06:41:25;98178.66;;;-1.27;100.00
72721;BME280;60835;50.974;10.322;2024-03-08T06:43:51;98185.47;;;-1.10;100.00
72721;BME280;60835;50.974;10.322;2024-03-08T06:46:18;98189.66;;;-1.08;100.00
72721;BME280;60835;50.974;10.322;2024-03-08T06:48:47;98085.38;;;-1.74;100.00
72721;BME280;60835;50.974;10.322;2024-03-08T06:51:17;98157.25;;;-1.31;100.00
72721;BME280;60835;50.974;10.322;2024-03-08T06:53:44;98180.38;;;-0.82;100.00
72721;BME280;60835;50.974;10.322;2024-03-08T06:56:11;98179.41;;;-0.81;100.00
72721;BME280;60835;50.974;10.322;2024-03-08T06:58:38;98190.38;;;-0.76;100.00
72721;BME280;60835;50.974;10.322;2024-03-08T07:01:04;98184.34;;;-0.77;100.00
72721;BME280;60835;50.974;10.322;2024-03-08T07:03:34;98181.06;;;-0.94;100.00
72721;BME280;60835;50.974;10.322;2024-03-08T07:06:01;98200.97;;;-0.65;100.00
72721;BME280;60835;50.974;10.322;2024-03-08T07:08:30;98227.25;;;-0.41;100.00
72721;BME280;60835;50.974;10.322;2024-03-08T07:10:57;98203.69;;;-0.38;100.00
72721;BME280;60835;50.974;10.322;2024-03-08T07:13:26;98213.78;;;-0.62;100.00
72721;BME280;60835;50.974;10.322;2024-03-08T07:15:55;98212.31;;;-0.24;100.00
72721;BME280;60835;50.974;10.322;2024-03-08T07:18:22;98243.69;;;-0.13;100.00
72721;BME280;60835;50.974;10.322;2024-03-08T07:20:49;98245.84;;;0.09;100.00
72721;BME280;60835;50.974;10.322;2024-03-08T07:23:16;98249.81;;;0.00;100.00
72721;BME280;60835;50.974;10.322;2024-03-08T07:26:01;98209.00;;;-0.40;100.00
72721;BME280;60835;50.974;10.322;2024-03-08T07:28:28;98248.69;;;0.33;100.00
72721;BME280;60835;50.974;10.322;2024-03-08T07:31:00;98263.00;;;0.26;100.00
72721;BME280;60835;50.974;10.322;2024-03-08T07:33:47;98236.19;;;1.05;100.00
72721;BME280;60835;50.974;10.322;2024-03-08T07:36:17;98261.59;;;0.75;100.00
72721;BME280;60835;50.974;10.322;2024-03-08T07:38:43;98272.16;;;1.90;100.00
72721;BME280;60835;50.974;10.322;2024-03-08T07:41:12;98315.47;;;1.93;100.00
72721;BME280;60835;50.974;10.322;2024-03-08T07:43:41;98311.78;;;2.45;100.00
72721;BME280;60835;50.974;10.322;2024-03-08T07:46:07;98356.16;;;1.43;100.00
72721;BME280;60835;50.974;10.322;2024-03-08T07:48:36;98222.41;;;1.93;100.00
72721;BME280;60835;50.974;10.322;2024-03-08T07:51:03;98324.13;;;3.16;100.00
72721;BME280;60835;50.974;10.322;2024-03-08T07:53:30;98383.31;;;3.04;100.00
72721;BME280;60835;50.974;10.322;2024-03-08T07:55:57;98323.97;;;3.30;100.00
72721;BME280;60835;50.974;10.322;2024-03-08T07:58:23;98309.44;;;3.61;100.00
72721;BME280;60835;50.974;10.322;2024-03-08T08:00:50;98317.31;;;3.37;100.00
72721;BME280;60835;50.974;10.322;2024-03-08T08:03:18;98315.13;;;3.90;100.00
72721;BME280;60835;50.974;10.322;2024-03-08T08:05:47;98308.47;;;4.08;100.00
72721;BME280;60835;50.974;10.322;2024-03-08T08:08:15;98291.59;;;4.12;100.00
72721;BME280;60835;50.974;10.322;2024-03-08T08:10:43;98279.59;;;2.58;100.00
72721;BME280;60835;50.974;10.322;2024-03-08T08:13:09;98273.50;;;4.42;100.00
72721;BME280;60835;50.974;10.322;2024-03-08T08:15:36;98171.72;;;3.38;100.00
72721;BME280;60835;50.974;10.322;2024-03-08T08:18:03;98229.94;;;4.41;100.00
72721;BME280;60835;50.974;10.322;2024-03-08T08:20:33;98228.50;;;4.37;100.00
72721;BME280;60835;50.974;10.322;2024-03-08T08:23:00;98065.88;;;3.97;100.00
72721;BME280;60835;50.974;10.322;2024-03-08T08:25:27;98165.63;;;5.12;100.00
72721;BME280;60835;50.974;10.322;2024-03-08T08:27:53;98121.88;;;5.33;100.00
72721;BME280;60835;50.974;10.322;2024-03-08T08:30:20;98113.56;;;5.28;100.00
72721;BME280;60835;50.974;10.322;2024-03-08T08:32:48;98112.16;;;4.82;100.00
72721;BME280;60835;50.974;10.322;2024-03-08T08:35:16;98066.69;;;5.34;100.00
72721;BME280;60835;50.974;10.322;2024-03-08T08:37:45;98066.69;;;6.04;100.00
72721;BME280;60835;50.974;10.322;2024-03-08T08:40:12;98113.81;;;4.20;100.00
72721;BME280;60835;50.974;10.322;2024-03-08T08:42:42;98122.63;;;4.82;100.00
72721;BME280;60835;50.974;10.322;2024-03-08T08:45:09;98072.56;;;5.57;100.00
72721;BME280;60835;50.974;10.322;2024-03-08T08:47:43;98058.53;;;5.77;100.00
72721;BME280;60835;50.974;10.322;2024-03-08T08:50:10;98114.03;;;6.62;100.00
72721;BME280;60835;50.974;10.322;2024-03-08T08:52:39;98195.47;;;5.52;100.00
72721;BME280;60835;50.974;10.322;2024-03-08T08:55:06;98129.53;;;5.45;100.00
72721;BME280;60835;50.974;10.322;2024-03-08T08:57:33;98190.75;;;7.05;100.00
72721;BME280;60835;50.974;10.322;2024-03-08T09:00:03;98204.09;;;4.90;100.00
72721;BME280;60835;50.974;10.322;2024-03-08T09:02:34;98149.16;;;6.42;100.00
72721;BME280;60835;50.974;10.322;2024-03-08T09:05:01;98233.13;;;4.99;100.00
72721;BME280;60835;50.974;10.322;2024-03-08T09:07:29;98197.38;;;6.31;100.00
72721;BME280;60835;50.974;10.322;2024-03-08T09:09:56;98239.22;;;5.31;100.00
72721;BME280;60835;50.974;10.322;2024-03-08T09:12:25;98267.06;;;5.95;100.00
72721;BME280;60835;50.974;10.322;2024-03-08T09:14:52;98249.31;;;7.65;100.00
72721;BME280;60835;50.974;10.322;2024-03-08T09:17:18;98260.66;;;5.77;100.00
72721;BME280;60835;50.974;10.322;2024-03-08T09:19:47;98127.47;;;5.90;100.00
72721;BME280;60835;50.974;10.322;2024-03-08T09:22:17;98223.69;;;7.19;100.00
72721;BME280;60835;50.974;10.322;2024-03-08T09:24:45;98306.34;;;7.07;100.00
72721;BME280;60835;50.974;10.322;2024-03-08T09:27:12;98402.19;;;7.73;100.00
72721;BME280;60835;50.974;10.322;2024-03-08T09:29:40;98498.19;;;8.56;100.00
72721;BME280;60835;50.974;10.322;2024-03-08T09:32:07;98493.84;;;7.49;100.00
72721;BME280;60835;50.974;10.322;2024-03-08T09:34:34;98578.25;;;6.85;100.00
72721;BME280;60835;50.974;10.322;2024-03-08T09:37:04;98453.38;;;7.40;100.00
72721;BME280;60835;50.974;10.322;2024-03-08T09:39:31;98373.47;;;5.99;100.00
72721;BME280;60835;50.974;10.322;2024-03-08T09:42:01;98302.94;;;7.45;100.00
72721;BME280;60835;50.974;10.322;2024-03-08T09:44:28;98346.88;;;7.82;100.00
72721;BME280;60835;50.974;10.322;2024-03-08T09:46:58;98364.88;;;7.58;100.00
72721;BME280;60835;50.974;10.322;2024-03-08T09:49:26;98449.13;;;7.18;100.00
72721;BME280;60835;50.974;10.322;2024-03-08T09:51:54;98464.28;;;7.94;100.00
72721;BME280;60835;50.974;10.322;2024-03-08T09:54:22;98532.72;;;8.53;100.00
72721;BME280;60835;50.974;10.322;2024-03-08T09:56:51;98497.56;;;7.95;100.00
72721;BME280;60835;50.974;10.322;2024-03-08T09:59:18;98466.94;;;9.17;100.00
72721;BME280;60835;50.974;10.322;2024-03-08T10:01:55;98604.31;;;9.82;100.00
72721;BME280;60835;50.974;10.322;2024-03-08T10:04:23;98679.59;;;10.05;100.00
72721;BME280;60835;50.974;10.322;2024-03-08T10:06:50;98711.00;;;10.17;100.00
72721;BME280;60835;50.974;10.322;2024-03-08T10:09:16;98665.06;;;7.98;100.00
72721;BME280;60835;50.974;10.322;2024-03-08T10:11:43;98656.66;;;9.49;100.00
72721;BME280;60835;50.974;10.322;2024-03-08T10:14:10;98658.56;;;9.76;100.00
72721;BME280;60835;50.974;10.322;2024-03-08T10:16:38;98698.06;;;8.82;100.00
72721;BME280;60835;50.974;10.322;2024-03-08T10:19:06;98658.03;;;8.38;100.00
72721;BME280;60835;50.974;10.322;2024-03-08T10:21:34;98617.91;;;7.95;100.00
72721;BME280;60835;50.974;10.322;2024-03-08T10:24:04;98610.28;;;8.32;100.00
72721;BME280;60835;50.974;10.322;2024-03-08T10:26:31;98638.72;;;8.28;100.00
72721;BME280;60835;50.974;10.322;2024-03-08T10:28:58;98521.69;;;7.91;100.00
72721;BME280;60835;50.974;10.322;2024-03-08T10:31:25;98528.94;;;7.59;100.00
72721;BME280;60835;50.974;10.322;2024-03-08T10:33:52;98617.06;;;9.49;100.00
72721;BME280;60835;50.974;10.322;2024-03-08T10:36:19;98656.41;;;8.56;100.00
72721;BME280;60835;50.974;10.322;2024-03-08T10:38:46;98705.13;;;8.22;100.00
72721;BME280;60835;50.974;10.322;2024-03-08T10:41:15;98686.41;;;8.75;100.00
72721;BME280;60835;50.974;10.322;2024-03-08T10:43:57;98658.41;;;10.14;100.00
72721;BME280;60835;50.974;10.322;2024-03-08T10:46:54;98736.69;;;9.78;100.00
72721;BME280;60835;50.974;10.322;2024-03-08T10:49:32;98687.19;;;9.80;100.00
72721;BME280;60835;50.974;10.322;2024-03-08T10:52:05;98727.66;;;10.64;100.00
72721;BME280;60835;50.974;10.322;2024-03-08T10:54:37;98837.09;;;11.45;100.00
72721;BME280;60835;50.974;10.322;2024-03-08T10:57:12;98838.94;;;9.00;100.00
72721;BME280;60835;50.974;10.322;2024-03-08T10:59:40;98761.44;;;9.58;100.00
72721;BME280;60835;50.974;10.322;2024-03-08T11:02:12;98835.13;;;9.61;100.00
72721;BME280;60835;50.974;10.322;2024-03-08T11:04:45;98851.84;;;9.81;100.00
72721;BME280;60835;50.974;10.322;2024-03-08T11:07:18;98854.47;;;9.52;100.00
72721;BME280;60835;50.974;10.322;2024-03-08T11:09:48;98886.94;;;10.77;100.00
72721;BME280;60835;50.974;10.322;2024-03-08T11:12:28;98860.72;;;9.51;100.00
72721;BME280;60835;50.974;10.322;2024-03-08T11:15:11;98887.34;;;10.82;100.00
72721;BME280;60835;50.974;10.322;2024-03-08T11:17:44;98909.22;;;11.39;100.00
72721;BME280;60835;50.974;10.322;2024-03-08T11:20:13;98923.38;;;10.37;100.00
72721;BME280;60835;50.974;10.322;2024-03-08T11:25:36;98920.34;;;11.15;100.00
72721;BME280;60835;50.974;10.322;2024-03-08T11:28:20;98915.28;;;10.48;100.00
72721;BME280;60835;50.974;10.322;2024-03-08T11:33:30;98908.88;;;10.41;100.00
72721;BME280;60835;50.974;10.322;2024-03-08T11:36:24;98923.09;;;10.40;100.00
72721;BME280;60835;50.974;10.322;2024-03-08T11:38:52;98915.97;;;10.31;100.00
72721;BME280;60835;50.974;10.322;2024-03-08T11:41:21;98932.69;;;10.97;100.00
72721;BME280;60835;50.974;10.322;2024-03-08T11:44:05;98907.50;;;10.37;100.00
72721;BME280;60835;50.974;10.322;2024-03-08T11:46:33;98892.28;;;11.94;100.00
72721;BME280;60835;50.974;10.322;2024-03-08T11:49:00;98915.22;;;10.67;100.00
72721;BME280;60835;50.974;10.322;2024-03-08T11:51:27;98896.50;;;10.32;100.00
72721;BME280;60835;50.974;10.322;2024-03-08T11:53:53;98893.53;;;10.54;100.00
72721;BME280;60835;50.974;10.322;2024-03-08T11:56:20;98882.00;;;11.19;100.00
72721;BME280;60835;50.974;10.322;2024-03-08T11:58:55;98884.25;;;11.86;100.00
72721;BME280;60835;50.974;10.322;2024-03-08T12:01:25;98886.94;;;11.59;100.00
72721;BME280;60835;50.974;10.322;2024-03-08T12:03:56;98884.97;;;11.61;100.00
72721;BME280;60835;50.974;10.322;2024-03-08T12:06:26;98903.84;;;10.94;100.00
72721;BME280;60835;50.974;10.322;2024-03-08T12:08:53;98854.78;;;11.72;100.00
72721;BME280;60835;50.974;10.322;2024-03-08T12:11:22;98870.19;;;11.14;100.00
72721;BME280;60835;50.974;10.322;2024-03-08T12:13:56;98878.28;;;12.02;100.00
72721;BME280;60835;50.974;10.322;2024-03-08T12:16:24;98862.59;;;11.73;100.00
72721;BME280;60835;50.974;10.322;2024-03-08T12:18:51;98873.84;;;13.47;100.00
72721;BME280;60835;50.974;10.322;2024-03-08T12:21:20;98876.16;;;10.88;100.00
72721;BME280;60835;50.974;10.322;2024-03-08T12:24:10;98856.84;;;11.06;100.00
72721;BME280;60835;50.974;10.322;2024-03-08T12:26:38;98859.53;;;10.69;100.00
72721;BME280;60835;50.974;10.322;2024-03-08T12:29:20;98862.44;;;13.63;100.00
72721;BME280;60835;50.974;10.322;2024-03-08T12:31:55;98840.88;;;11.25;100.00
72721;BME280;60835;50.974;10.322;2024-03-08T12:34:22;98848.13;;;13.72;100.00
72721;BME280;60835;50.974;10.322;2024-03-08T12:36:50;98862.78;;;13.18;100.00
72721;BME280;60835;50.974;10.322;2024-03-08T12:39:20;98849.75;;;12.21;100.00
72721;BME280;60835;50.974;10.322;2024-03-08T12:41:56;98830.28;;;11.25;100.00
72721;BME280;60835;50.974;10.322;2024-03-08T12:44:26;98806.75;;;11.92;100.00
72721;BME280;60835;50.974;10.322;2024-03-08T12:46:54;98793.50;;;11.92;100.00
72721;BME280;60835;50.974;10.322;2024-03-08T12:49:21;98815.06;;;12.41;100.00
72721;BME280;60835;50.974;10.322;2024-03-08T12:51:52;98826.84;;;11.77;100.00
72721;BME280;60835;50.974;10.322;2024-03-08T12:54:21;98780.47;;;11.81;100.00
72721;BME280;60835;50.974;10.322;2024-03-08T12:56:51;98831.75;;;12.93;100.00
72721;BME280;60835;50.974;10.322;2024-03-08T12:59:23;98830.59;;;11.12;100.00
72721;BME280;60835;50.974;10.322;2024-03-08T13:01:50;98818.75;;;10.89;100.00